Estación Meteorológica Peña el Pijo (Robertgarden) [ 07/23/19 13:27:46 CEST ]

Fecha Hora Presion(HPa) Temp (°C) Humedad % Rocio (°C) Viento ( m/s) Direccion Lluvia 1Hora(mm) Lluvia 24H(mm) LLuvia Total(mm)
2019-May-26 01:01:35 1010.300 20.1 79 16.4         318.05
2019-May-26 02:01:43 1010.100 21.2 81 17.8         318.05
2019-May-26 03:05:09 1009.700 23.3 84 20.5     0.51   318.05
2019-May-26 04:01:51 1009.500 25.1 86 22.6         318.05
2019-May-26 05:01:55 1009.200 24.3 86 21.8         318.05
2019-May-26 06:01:42 1008.600 25.7 88 23.6         318.05
2019-May-26 07:01:47 1009.000 24.1 88 22.0         318.05
2019-May-26 08:01:46 1008.800 20.1 89 18.2         318.05
2019-May-26 09:01:50 1008.600 16.8 76 12.5         318.05
2019-May-26 10:01:46 1008.300 20.4 52 10.2         318.05
2019-May-26 11:01:45 1008.300 22.6 43 9.3         318.05
2019-May-26 12:01:41 1008.100 24.3 35 7.8         318.05
2019-May-26 13:01:52 1008.100 25.0 33 7.5         318.05
2019-May-26 14:01:28 1007.600 25.3 33 7.8         318.05
2019-May-26 15:01:46 1007.200 25.3 31 7.0         318.05
2019-May-26 16:01:26 1006.900 28.1 28 7.7         318.05
2019-May-26 17:01:37 1006.600 24.4 32 6.6         318.05
2019-May-26 18:01:15 1006.600 26.2 27 5.6         318.05
2019-May-26 19:01:56 1006.600 25.6 27 5.0         318.05
2019-May-26 20:01:45 1006.800 22.9 26 2.2         318.05
2019-May-26 21:01:39 1007.300 19.4 33 2.6         318.05
2019-May-26 22:01:53 1007.600 17.8 45 5.6         318.05
2019-May-26 23:01:48 1008.000 18.5 53 8.7         318.05

Temperatura Máxima:28°    Temperatura Mínima:16°
Presión Máxima:1010.300 Hpa    Presión Mínima:1006.600 Hpa


Volver